Aérodrome :
LOGIN :

S'inscrire | Disclaimer

   EN    FR    IT 

 










Légende :    VFR   VFR Marginal   IFR   IFR Intensif   IFR Très Intensif
Visi : 
Plafond : 
>= 8 km
>= 3000ft
5 à 8 km
1000 à 3000 ft
1500m à 5 km
500 à 1000 ft
800 à 1500m
200 à 500 ft
< 800m
< 200 ft
Symboles :   Orages  Brouillard  Fortes neiges  Fortes précipitations  Vent > 20 kt
SIGMETs :   Divers  Orages  Givrage  Turbulence  Onde Orograph.  Cendres Volcan.







- Altitude de l'aérodrome : 640 ft
- Code IATA : AOC


EDAC - Altenburg-Nobitz

DERNIER METAR :
  • 162120Z AUTO 19005KT 9999 // NCD 07/M01 Q1026

METARs EXPIRÉS :
  • 162050Z AUTO 19006KT 9999 // NCD 07/M01 Q1026
  • 162020Z AUTO 20006KT 9999 // NCD 07/M01 Q1025
  • 161950Z AUTO 20009KT 9999 // NCD 07/M01 Q1025
  • 161920Z AUTO 19009KT 9999 // NCD 09/M01 Q1025
  • 161850Z AUTO 19009KT 9999 // NCD 09/M01 Q1026

TAF TAF EDAC
Valide du 16 à 15h jusqu'au 17 à 00h UTC


161400Z 1615/1624 20006KT CAVOK
Pas de NOTAMs connus pour ce terrain.



MET'MAP, la Météo Aéronautique d'un coup d'oeil ! - Copyright ORBIFLY Décembre 2007 - Disclaimer

ORBIFLY MET'MAP TEAM :

Programmation & Développement : Alexandra Zaïnal
Conception & Développement : Baudouin d'Aumeries
Co-Programmation & Développement : Marc-Olivier Méhu
Soutien technique & logistique : Manuel Goepfert

Contact : metmap@orbifly.com




SOURCES & CREDITS :

   NOAA